Time;durP1;ratioP1;P1;durP2;ratioP2;P2;SDS_P1;SDS_P2;PMS_P1;PMS_P2;Temp;Humidity;BMP_temperature;BMP_pressure;BME280_temperature;BME280_humidity;BME280_pressure;Samples;Min_cycle;Max_cycle;Signal;HPM_P1;HPM_P2
2023/03/10 00:00:40;;;;;;;5.43;2.50;;;;;;;12.82;84.25;93731.91;5091005;28;20261;-61
2023/03/10 00:03:06;;;;;;;2.90;2.10;;;;;;;12.73;86.18;93693.84;5091026;28;20180;-57
2023/03/10 00:05:31;;;;;;;3.00;2.00;;;;;;;12.57;87.14;93677.66;5091113;28;20212;-56
2023/03/10 00:07:57;;;;;;;3.87;1.87;;;;;;;12.54;86.59;93692.50;5091209;28;20199;-57
2023/03/10 00:10:22;;;;;;;3.60;2.30;;;;;;;12.46;87.10;93695.84;5090903;28;20689;-57
2023/03/10 00:12:47;;;;;;;3.15;2.13;;;;;;;12.52;89.32;93653.63;5090961;28;20192;-57
2023/03/10 00:15:13;;;;;;;3.10;2.27;;;;;;;12.52;90.81;93651.09;5090956;28;20204;-57
2023/03/10 00:17:38;;;;;;;4.23;2.53;;;;;;;12.56;88.30;93693.13;5091015;28;20665;-56
2023/03/10 00:20:10;;;;;;;5.73;2.37;;;;;;;12.57;87.58;93715.91;5072726;28;20298;-56
2023/03/10 00:22:36;;;;;;;7.93;2.65;;;;;;;12.68;86.81;93721.59;5090942;28;20188;-56
2023/03/10 00:25:01;;;;;;;5.55;2.67;;;;;;;12.53;86.73;93722.28;5090730;28;20220;-57
2023/03/10 00:27:27;;;;;;;5.70;2.87;;;;;;;12.50;88.83;93689.47;5090841;28;20263;-60
2023/03/10 00:29:52;;;;;;;3.60;2.35;;;;;;;12.68;86.29;93735.94;5090974;28;20259;-58
2023/03/10 00:32:18;;;;;;;4.07;2.07;;;;;;;12.53;88.30;93691.69;5090688;28;20176;-56
2023/03/10 00:34:43;;;;;;;2.75;2.20;;;;;;;12.49;87.00;93710.03;5089570;28;20303;-56
2023/03/10 00:37:09;;;;;;;5.10;2.20;;;;;;;12.42;87.54;93701.47;5090665;28;20666;-56
2023/03/10 00:39:35;;;;;;;4.78;2.38;;;;;;;12.51;89.37;93680.88;5090945;28;20222;-57
2023/03/10 00:42:00;;;;;;;5.00;2.40;;;;;;;12.54;89.21;93684.84;5090509;28;20576;-56
2023/03/10 00:44:27;;;;;;;4.72;2.28;;;;;;;12.54;89.15;93684.84;5072424;28;20220;-55
2023/03/10 00:46:54;;;;;;;2.13;1.70;;;;;;;12.51;87.91;93696.16;5090609;28;20184;-56
2023/03/10 00:49:19;;;;;;;5.60;2.20;;;;;;;12.55;88.21;93705.06;5090334;28;20218;-56
2023/03/10 00:51:45;;;;;;;2.23;1.67;;;;;;;12.46;88.14;93687.44;5071959;28;20191;-56
2023/03/10 00:54:11;;;;;;;5.85;2.20;;;;;;;12.44;89.66;93674.06;5090305;28;20294;-58
2023/03/10 00:56:37;;;;;;;4.22;2.60;;;;;;;12.56;87.97;93709.19;5091705;28;20555;-57
2023/03/10 00:59:03;;;;;;;2.35;1.65;;;;;;;12.53;88.22;93694.25;5094306;28;20222;-55
2023/03/10 01:01:31;;;;;;;3.65;2.10;;;;;;;12.73;86.02;93732.88;5093881;28;20192;-55
2023/03/10 01:04:00;;;;;;;2.47;1.80;;;;;;;12.69;86.98;93716.31;5093895;28;20228;-55
2023/03/10 01:06:26;;;;;;;4.47;2.17;;;;;;;12.47;88.02;93694.09;5093910;28;20269;-54
2023/03/10 01:08:52;;;;;;;4.15;2.42;;;;;;;12.46;88.85;93688.19;5093744;28;20235;-54
2023/03/10 01:11:20;;;;;;;3.55;1.80;;;;;;;12.59;87.01;93718.28;5093828;28;20584;-55
2023/03/10 01:13:47;;;;;;;5.63;2.08;;;;;;;12.46;88.22;93702.72;5093829;28;20211;-55
2023/03/10 01:16:12;;;;;;;5.93;2.33;;;;;;;12.43;88.35;93711.50;5093912;28;20188;-57
2023/03/10 01:18:38;;;;;;;3.58;1.92;;;;;;;12.41;88.68;93704.97;5093702;28;20199;-59
2023/03/10 01:21:04;;;;;;;5.15;2.13;;;;;;;12.46;87.96;93700.94;5093742;28;20614;-58
2023/03/10 01:23:30;;;;;;;5.00;2.47;;;;;;;12.63;86.25;93732.28;5093737;28;20578;-54
2023/03/10 01:25:55;;;;;;;3.20;2.00;;;;;;;12.65;87.26;93717.63;5093592;28;20308;-55
2023/03/10 01:28:21;;;;;;;4.38;2.80;;;;;;;12.50;87.94;93691.25;5075412;28;20225;-55
2023/03/10 01:30:47;;;;;;;4.55;2.95;;;;;;;12.54;88.33;93700.16;5093378;28;20705;-57
2023/03/10 01:33:14;;;;;;;4.68;2.95;;;;;;;12.50;88.16;93699.66;5093684;28;20654;-56
2023/03/10 01:35:40;;;;;;;6.50;3.20;;;;;;;12.54;86.63;93718.00;5093581;28;20240;-57
2023/03/10 01:38:06;;;;;;;4.85;2.78;;;;;;;12.49;87.73;93697.28;5093529;28;20231;-58
2023/03/10 01:40:32;;;;;;;6.60;3.20;;;;;;;12.28;88.11;93676.66;5075317;28;20208;-56
2023/03/10 01:43:31;;;;;;;4.23;2.77;;;;;;;12.36;88.23;93692.69;5093328;28;20195;-56
2023/03/10 01:45:59;;;;;;;5.23;3.00;;;;;;;12.46;86.16;93739.19;5049264;28;20208;-55
2023/03/10 01:48:25;;;;;;;4.53;2.63;;;;;;;12.25;88.27;93710.91;5093319;28;20640;-59
2023/03/10 01:50:53;;;;;;;4.53;2.40;;;;;;;12.28;87.37;93723.31;5074813;28;20204;-56
2023/03/10 01:53:20;;;;;;;4.90;2.23;;;;;;;12.13;89.08;93694.38;5093094;28;20192;-57
2023/03/10 01:55:55;;;;;;;2.70;2.27;;;;;;;12.10;89.60;93681.16;5093180;28;20622;-54
2023/03/10 01:58:25;;;;;;;2.27;2.07;;;;;;;12.12;89.14;93697.09;5093262;28;20196;-54
2023/03/10 02:00:53;;;;;;;4.97;2.50;;;;;;;12.07;89.40;93692.47;5074699;28;20208;-59
2023/03/10 02:03:40;;;;;;;4.10;2.50;;;;;;;12.12;89.94;93694.53;5093225;28;20634;-55
2023/03/10 02:06:10;;;;;;;4.63;2.63;;;;;;;12.24;88.30;93718.72;5093163;28;20192;-55
2023/03/10 02:08:46;;;;;;;3.80;2.50;;;;;;;12.35;86.86;93749.75;5092605;28;20237;-56
2023/03/10 02:11:13;;;;;;;2.90;2.60;;;;;;;12.17;87.88;93728.75;5092794;28;20215;-55
2023/03/10 02:13:39;;;;;;;5.13;2.80;;;;;;;12.11;88.02;93726.06;5092846;28;20198;-56
2023/03/10 02:16:06;;;;;;;4.07;2.70;;;;;;;12.01;88.71;93707.59;5093056;28;20179;-56
2023/03/10 02:18:32;;;;;;;3.67;2.10;;;;;;;11.97;89.17;93702.03;5092820;28;20188;-55
2023/03/10 02:21:23;;;;;;;3.83;2.80;;;;;;;11.94;89.82;93694.72;5092617;28;20196;-55
2023/03/10 02:23:58;;;;;;;3.87;2.60;;;;;;;11.97;89.04;93696.16;5092605;28;20220;-54
2023/03/10 02:26:29;;;;;;;4.53;3.13;;;;;;;12.01;89.18;93702.50;5074460;28;20291;-55
2023/03/10 02:28:58;;;;;;;7.03;2.80;;;;;;;11.95;89.37;93698.84;5092863;28;20712;-54
2023/03/10 02:31:25;;;;;;;4.43;2.50;;;;;;;12.07;89.28;93706.94;5092336;28;20195;-54
2023/03/10 02:33:50;;;;;;;4.97;2.60;;;;;;;12.11;88.25;93720.97;5092431;28;20212;-55
2023/03/10 02:36:21;;;;;;;3.33;2.47;;;;;;;12.11;88.63;93715.88;5092490;28;20192;-55
2023/03/10 02:38:47;;;;;;;9.00;2.87;;;;;;;11.96;89.78;93694.56;5092083;28;20227;-54
2023/03/10 02:41:19;;;;;;;5.40;2.90;;;;;;;12.00;89.15;93698.38;5092229;28;20229;-54
2023/03/10 02:43:46;;;;;;;3.23;2.47;;;;;;;11.98;89.13;93698.53;5092445;28;20212;-54
2023/03/10 02:46:12;;;;;;;5.57;2.57;;;;;;;11.96;90.03;93686.94;5092501;28;20402;-56
2023/03/10 02:48:39;;;;;;;3.10;2.20;;;;;;;11.93;89.53;93682.16;5092410;28;20428;-54
2023/03/10 02:51:11;;;;;;;3.10;2.60;;;;;;;12.06;89.77;93700.28;5092181;28;20188;-58
2023/03/10 02:53:36;;;;;;;2.67;2.23;;;;;;;11.98;88.98;93705.38;5092458;28;20195;-57
2023/03/10 02:56:02;;;;;;;3.70;2.20;;;;;;;12.06;88.15;93715.56;5073890;28;20188;-56
2023/03/10 02:58:30;;;;;;;3.17;2.20;;;;;;;11.92;88.91;93709.34;5092373;28;20210;-56
2023/03/10 03:00:56;;;;;;;2.70;1.97;;;;;;;11.87;89.05;93705.72;5092152;28;20195;-56
2023/03/10 03:03:22;;;;;;;3.33;2.10;;;;;;;11.80;89.15;93703.81;5092150;28;20270;-60
2023/03/10 03:05:49;;;;;;;5.83;2.20;;;;;;;11.60;90.32;93671.16;5073853;28;20596;-57
2023/03/10 03:08:15;;;;;;;2.47;1.80;;;;;;;11.69;90.44;93677.88;5092034;28;20531;-59
2023/03/10 03:10:41;;;;;;;3.57;1.93;;;;;;;11.73;91.12;93674.88;5091969;28;20231;-60
2023/03/10 03:13:07;;;;;;;3.53;2.20;;;;;;;11.74;91.22;93678.19;5092039;28;20669;-55
2023/03/10 03:15:33;;;;;;;3.27;2.07;;;;;;;11.85;91.14;93679.59;5091820;28;20219;-55
2023/03/10 03:17:59;;;;;;;3.93;1.83;;;;;;;11.96;91.69;93664.00;5091745;28;20176;-57
2023/03/10 03:20:26;;;;;;;5.70;2.40;;;;;;;11.96;90.90;93679.28;5090533;28;20290;-57
2023/03/10 03:22:51;;;;;;;2.67;1.93;;;;;;;12.11;89.92;93698.03;5091728;28;20219;-56
2023/03/10 03:25:19;;;;;;;3.27;1.90;;;;;;;12.19;89.09;93719.19;5091631;28;20243;-58
2023/03/10 03:27:45;;;;;;;2.80;1.70;;;;;;;12.13;90.91;93691.81;5091845;28;20186;-59
2023/03/10 03:30:15;;;;;;;3.40;1.83;;;;;;;12.32;88.60;93728.88;5091408;28;20279;-56
2023/03/10 03:32:40;;;;;;;4.73;2.23;;;;;;;12.34;88.18;93734.63;5091769;28;20180;-58
2023/03/10 03:35:28;;;;;;;3.87;2.00;;;;;;;12.11;89.71;93695.47;5091766;28;20291;-59
2023/03/10 03:37:54;;;;;;;4.47;2.00;;;;;;;12.32;88.49;93719.47;5091242;28;20685;-59
2023/03/10 03:40:22;;;;;;;3.70;2.07;;;;;;;12.30;88.35;93718.06;5091500;28;20212;-56
2023/03/10 03:42:50;;;;;;;4.10;2.10;;;;;;;12.24;88.58;93711.06;5091343;28;20271;-57
2023/03/10 03:45:18;;;;;;;2.33;1.90;;;;;;;12.20;88.25;93717.44;5091296;28;20658;-56
2023/03/10 03:47:44;;;;;;;2.33;1.70;;;;;;;12.22;87.83;93730.81;5091476;28;20184;-57
2023/03/10 03:50:12;;;;;;;3.00;2.20;;;;;;;12.16;88.05;93731.47;5091298;28;20640;-56
2023/03/10 03:52:39;;;;;;;4.13;2.23;;;;;;;12.10;88.13;93738.00;5091391;28;20734;-55
2023/03/10 03:55:06;;;;;;;6.27;1.83;;;;;;;12.10;88.55;93729.56;5091430;28;20220;-56
2023/03/10 03:57:32;;;;;;;5.50;2.20;;;;;;;12.01;88.85;93720.34;5091201;28;20184;-55
2023/03/10 03:59:58;;;;;;;2.10;1.87;;;;;;;12.01;89.47;93713.50;5090927;28;20624;-54
2023/03/10 04:02:23;;;;;;;2.90;1.97;;;;;;;11.96;89.07;93708.06;5091061;28;20199;-61
2023/03/10 04:04:49;;;;;;;2.60;1.70;;;;;;;12.07;88.28;93727.34;5091104;28;20254;-55
2023/03/10 04:07:15;;;;;;;5.20;1.60;;;;;;;11.91;89.21;93702.69;5091114;28;20305;-55
2023/03/10 04:09:42;;;;;;;3.23;1.93;;;;;;;12.01;89.12;93708.41;5090866;28;20220;-55
2023/03/10 04:12:08;;;;;;;2.40;1.63;;;;;;;11.96;89.78;93690.25;5091053;28;20233;-59
2023/03/10 04:14:34;;;;;;;2.40;1.88;;;;;;;12.06;89.94;93701.06;5072777;28;20685;-60
2023/03/10 04:17:01;;;;;;;2.47;1.93;;;;;;;12.13;88.63;93729.22;5090697;28;20184;-58
2023/03/10 04:19:27;;;;;;;6.57;2.07;;;;;;;12.19;87.71;93739.59;5090624;28;20284;-59
2023/03/10 04:21:52;;;;;;;3.60;1.97;;;;;;;12.17;87.87;93726.22;5090659;28;20658;-59
2023/03/10 04:24:18;;;;;;;3.33;1.93;;;;;;;12.07;88.80;93704.41;5090861;28;20226;-59
2023/03/10 04:26:44;;;;;;;4.80;2.17;;;;;;;12.13;89.34;93702.00;5090905;28;20558;-60
2023/03/10 04:29:09;;;;;;;3.90;1.93;;;;;;;12.30;88.00;93723.16;5090552;28;20697;-59
2023/03/10 04:31:35;;;;;;;3.43;1.83;;;;;;;12.29;88.19;93721.56;5072232;28;20227;-60
2023/03/10 04:34:00;;;;;;;8.00;2.20;;;;;;;12.26;88.51;93714.25;5090680;28;20386;-55
2023/03/10 04:36:26;;;;;;;3.53;2.20;;;;;;;12.27;88.81;93698.78;5090854;28;20267;-57
2023/03/10 04:38:51;;;;;;;3.77;2.13;;;;;;;12.17;89.75;93684.63;5090616;28;20216;-56
2023/03/10 04:41:16;;;;;;;3.10;2.27;;;;;;;12.22;90.19;93684.97;5090646;28;20240;-56
2023/03/10 04:43:42;;;;;;;4.27;2.00;;;;;;;12.07;90.02;93679.72;5090830;28;20192;-55
2023/03/10 04:46:08;;;;;;;3.53;2.10;;;;;;;12.19;89.06;93690.38;5090395;28;20683;-59
2023/03/10 04:48:33;;;;;;;5.47;2.60;;;;;;;12.17;88.30;93697.38;5090726;28;20203;-57
2023/03/10 04:51:05;;;;;;;4.60;2.10;;;;;;;12.23;87.96;93729.84;5072309;28;20582;-56
2023/03/10 04:53:32;;;;;;;4.70;2.10;;;;;;;12.01;88.94;93693.13;5072136;28;21095;-59
2023/03/10 04:55:58;;;;;;;3.30;2.40;;;;;;;11.93;90.59;93654.94;5090252;28;20188;-57
2023/03/10 04:58:23;;;;;;;4.13;2.10;;;;;;;11.97;90.00;93680.88;5090214;28;20195;-56
2023/03/10 05:00:49;;;;;;;2.30;2.10;;;;;;;12.04;88.80;93692.78;5090213;28;20308;-56
2023/03/10 05:03:15;;;;;;;4.27;2.20;;;;;;;11.90;89.37;93679.94;5090452;28;20228;-55
2023/03/10 05:05:41;;;;;;;4.80;2.13;;;;;;;11.84;89.63;93660.22;5090149;28;20292;-55
2023/03/10 05:08:07;;;;;;;2.93;1.77;;;;;;;11.83;89.67;93661.94;5090026;28;20237;-55
2023/03/10 05:10:33;;;;;;;8.43;3.07;;;;;;;11.58;91.52;93620.44;5090032;28;20218;-56
2023/03/10 05:12:58;;;;;;;6.10;2.57;;;;;;;11.43;90.52;93633.97;5090124;28;20180;-55
2023/03/10 05:15:23;;;;;;;4.60;2.37;;;;;;;11.35;92.18;93604.22;5090090;28;20298;-55
2023/03/10 05:17:49;;;;;;;3.60;2.47;;;;;;;11.46;92.46;93619.16;5089954;28;20188;-54
2023/03/10 05:20:15;;;;;;;10.03;3.50;;;;;;;11.60;90.05;93663.53;5090101;28;20584;-54
2023/03/10 05:22:42;;;;;;;5.73;3.30;;;;;;;11.57;90.26;93648.59;5090077;28;20184;-53
2023/03/10 05:25:09;;;;;;;4.97;3.07;;;;;;;11.48;91.26;93629.97;5089602;28;20224;-60
2023/03/10 05:27:36;;;;;;;6.83;3.60;;;;;;;11.50;91.69;93620.44;5071643;28;20279;-62
2023/03/10 05:30:04;;;;;;;7.20;3.50;;;;;;;11.63;91.38;93628.38;5090146;28;20709;-54
2023/03/10 05:32:29;;;;;;;4.20;3.37;;;;;;;11.65;91.24;93636.66;5089929;28;20188;-55
2023/03/10 05:34:54;;;;;;;7.67;3.60;;;;;;;11.70;91.24;93626.00;5090044;28;20223;-56
2023/03/10 05:37:20;;;;;;;6.43;3.97;;;;;;;11.75;91.19;93634.75;5090039;28;20189;-55
2023/03/10 05:39:45;;;;;;;4.77;3.87;;;;;;;11.72;90.84;93622.34;5089664;28;20593;-55
2023/03/10 05:42:11;;;;;;;6.40;4.17;;;;;;;11.94;90.32;93643.00;5089666;28;20184;-54
2023/03/10 05:44:38;;;;;;;6.70;4.77;;;;;;;11.91;89.65;93644.13;5092592;28;20222;-56
2023/03/10 05:47:04;;;;;;;7.20;3.80;;;;;;;11.91;89.82;93650.94;5093117;28;20184;-55
2023/03/10 05:49:30;;;;;;;15.90;10.47;;;;;;;12.40;100.00;93662.59;5093239;28;20215;-55
2023/03/10 05:51:56;;;;;;;10.20;5.87;;;;;;;12.76;100.00;93676.47;5093162;28;20176;-60
2023/03/10 05:54:22;;;;;;;6.67;4.43;;;;;;;13.37;100.00;93800.75;5093122;28;20217;-59
2023/03/10 05:56:47;;;;;;;8.73;4.77;;;;;;;13.25;100.00;93914.38;5093083;28;20180;-61
2023/03/10 05:59:13;;;;;;;5.47;3.43;;;;;;;13.05;100.00;93911.38;5074809;28;20212;-61
2023/03/10 06:01:38;;;;;;;5.77;3.50;;;;;;;12.84;100.00;93877.91;5092923;28;20226;-56
2023/03/10 06:04:04;;;;;;;8.83;4.00;;;;;;;12.65;100.00;93838.25;5092684;28;20218;-56
2023/03/10 06:06:30;;;;;;;6.27;3.80;;;;;;;12.42;100.00;93823.81;5093131;28;20183;-59
2023/03/10 06:08:55;;;;;;;10.20;3.90;;;;;;;12.16;100.00;93777.34;5092640;28;20645;-61
2023/03/10 06:11:21;;;;;;;7.47;4.00;;;;;;;12.26;100.00;93818.72;5092762;28;20720;-57
2023/03/10 06:13:46;;;;;;;8.10;4.60;;;;;;;12.53;100.00;93837.00;5092601;28;20216;-58
2023/03/10 06:16:12;;;;;;;10.93;4.63;;;;;;;12.63;100.00;93862.31;5092733;28;20190;-58
2023/03/10 06:18:38;;;;;;;6.70;4.23;;;;;;;12.53;100.00;93856.59;5092624;28;20623;-58
2023/03/10 06:21:10;;;;;;;10.53;4.53;;;;;;;12.27;100.00;93807.56;5074262;28;20199;-58
2023/03/10 06:23:36;;;;;;;10.87;4.47;;;;;;;12.37;100.00;93806.44;5074299;28;20291;-57
2023/03/10 06:26:05;;;;;;;8.20;4.60;;;;;;;12.40;100.00;93816.31;5092255;28;20184;-56
2023/03/10 06:28:34;;;;;;;9.60;4.50;;;;;;;12.26;100.00;93811.09;5073946;28;20245;-56
2023/03/10 06:31:01;;;;;;;6.20;3.27;;;;;;;12.03;100.00;93780.34;5091591;28;20184;-56
2023/03/10 06:33:27;;;;;;;5.70;3.57;;;;;;;11.91;100.00;93757.91;5074168;28;20756;-56
2023/03/10 06:35:53;;;;;;;7.27;3.33;;;;;;;12.07;100.00;93773.19;5092310;28;20325;-56
2023/03/10 06:38:18;;;;;;;6.23;3.07;;;;;;;12.28;100.00;93784.47;5074047;28;20283;-57
2023/03/10 06:40:43;;;;;;;4.93;3.47;;;;;;;12.36;100.00;93786.22;5092216;28;20701;-57
2023/03/10 06:43:09;;;;;;;5.43;2.80;;;;;;;12.51;100.00;93789.69;5092376;28;20274;-57
2023/03/10 06:45:34;;;;;;;6.17;2.73;;;;;;;12.60;100.00;93811.66;5092062;28;20376;-56
2023/03/10 06:48:00;;;;;;;4.67;2.80;;;;;;;12.69;100.00;93825.97;5091942;28;20215;-56
2023/03/10 06:50:25;;;;;;;5.97;3.13;;;;;;;12.75;100.00;93827.88;5091826;28;20200;-57
2023/03/10 06:52:51;;;;;;;4.73;2.53;;;;;;;12.85;100.00;93861.66;5088863;28;20196;-55
2023/03/10 06:55:16;;;;;;;4.73;2.60;;;;;;;12.98;100.00;93872.16;5090130;28;20208;-58
2023/03/10 06:57:42;;;;;;;3.87;2.20;;;;;;;12.88;100.00;93855.44;5090048;28;20673;-59
2023/03/10 07:00:10;;;;;;;6.47;2.83;;;;;;;13.02;100.00;93885.38;5091545;28;20584;-57
2023/03/10 07:02:38;;;;;;;3.08;2.22;;;;;;;12.93;100.00;93878.72;5091621;28;20344;-57
2023/03/10 07:05:07;;;;;;;3.77;2.77;;;;;;;12.80;100.00;93838.41;5072300;28;20231;-57
2023/03/10 07:07:33;;;;;;;6.00;2.90;;;;;;;12.90;100.00;93828.00;5092061;28;20346;-57
2023/03/10 07:09:58;;;;;;;5.13;2.40;;;;;;;13.02;100.00;93870.88;5089960;28;20208;-58
2023/03/10 07:12:24;;;;;;;7.97;2.87;;;;;;;13.07;100.00;93875.50;5090713;28;20185;-57
2023/03/10 07:14:50;;;;;;;6.82;2.88;;;;;;;13.12;100.00;93848.53;5091577;28;20297;-57
2023/03/10 07:17:16;;;;;;;5.10;2.80;;;;;;;13.19;100.00;93839.25;5091454;28;20192;-57
2023/03/10 07:19:42;;;;;;;6.30;2.27;;;;;;;13.32;100.00;93848.94;5090952;28;20207;-57
2023/03/10 07:22:08;;;;;;;4.95;2.65;;;;;;;13.34;100.00;93852.13;5072256;28;20200;-58
2023/03/10 07:24:34;;;;;;;3.63;2.47;;;;;;;13.42;100.00;93854.63;5090751;28;20220;-58
2023/03/10 07:27:00;;;;;;;3.77;2.20;;;;;;;13.42;100.00;93859.75;5090548;28;20663;-58
2023/03/10 07:29:25;;;;;;;7.88;3.30;;;;;;;13.43;100.00;93838.38;5090604;28;20220;-57
2023/03/10 07:31:51;;;;;;;15.80;3.00;;;;;;;13.59;100.00;93855.34;5073310;28;20332;-57
2023/03/10 07:34:16;;;;;;;10.35;3.83;;;;;;;13.66;100.00;93884.34;5090707;28;20246;-57
2023/03/10 07:36:42;;;;;;;7.25;3.22;;;;;;;13.70;100.00;93872.84;5091135;28;20650;-57
2023/03/10 07:39:08;;;;;;;10.90;3.72;;;;;;;13.43;100.00;93864.66;5091576;28;20247;-58
2023/03/10 07:41:33;;;;;;;7.88;3.63;;;;;;;13.62;100.00;93878.00;5090523;28;20192;-57
2023/03/10 07:43:59;;;;;;;13.40;3.90;;;;;;;13.77;100.00;93894.22;5091279;28;20227;-57
2023/03/10 07:46:24;;;;;;;7.90;3.42;;;;;;;13.87;100.00;93895.59;5091003;28;20606;-56
2023/03/10 07:48:51;;;;;;;10.07;2.92;;;;;;;14.02;100.00;93873.47;5073157;28;20219;-57
2023/03/10 07:51:18;;;;;;;7.90;3.00;;;;;;;14.20;100.00;93880.88;5091292;28;20183;-58
2023/03/10 07:53:44;;;;;;;6.30;3.72;;;;;;;14.36;100.00;93926.81;5091140;28;20312;-57
2023/03/10 07:56:14;;;;;;;8.40;4.40;;;;;;;14.08;100.00;93889.88;5091057;28;20184;-57
2023/03/10 07:58:40;;;;;;;9.52;4.32;;;;;;;13.97;100.00;93859.59;5090876;28;20215;-57
2023/03/10 08:01:12;;;;;;;10.68;4.13;;;;;;;14.08;100.00;93841.31;5090896;28;20184;-58
2023/03/10 08:03:37;;;;;;;11.23;4.68;;;;;;;14.14;100.00;93848.28;5090891;28;20713;-59
2023/03/10 08:06:04;;;;;;;12.30;5.45;;;;;;;14.38;100.00;93889.06;5089315;28;20275;-57
2023/03/10 08:08:30;;;;;;;8.60;4.15;;;;;;;14.35;100.00;93881.72;5070869;28;20276;-58
2023/03/10 08:11:02;;;;;;;10.55;4.03;;;;;;;14.33;100.00;93868.31;5072798;28;20191;-57
2023/03/10 08:13:28;;;;;;;6.55;3.75;;;;;;;14.09;100.00;93856.50;5070875;28;20245;-57
2023/03/10 08:15:53;;;;;;;12.20;4.28;;;;;;;14.05;100.00;93808.44;5090407;28;20188;-57
2023/03/10 08:18:18;;;;;;;10.10;3.97;;;;;;;14.05;100.00;93793.91;5090485;28;20184;-58
2023/03/10 08:20:44;;;;;;;6.03;3.55;;;;;;;14.28;100.00;93812.59;5055672;28;20204;-58
2023/03/10 08:23:09;;;;;;;7.75;3.78;;;;;;;14.41;100.00;93850.34;5090533;28;20271;-59
2023/03/10 08:25:36;;;;;;;8.27;3.67;;;;;;;14.39;100.00;93818.25;5072115;28;20216;-59
2023/03/10 08:28:02;;;;;;;9.63;4.10;;;;;;;14.27;100.00;93793.09;5090746;28;20231;-59
2023/03/10 08:30:27;;;;;;;6.22;4.05;;;;;;;14.70;100.00;93835.09;5090582;28;20231;-59
2023/03/10 08:32:53;;;;;;;8.80;3.58;;;;;;;14.79;100.00;93859.59;5090410;28;20233;-59
2023/03/10 08:35:18;;;;;;;7.25;3.40;;;;;;;14.59;100.00;93819.34;5090445;28;20703;-58
2023/03/10 08:37:44;;;;;;;7.00;4.40;;;;;;;14.73;100.00;93798.91;5090657;28;20245;-60
2023/03/10 08:40:13;;;;;;;4.90;3.08;;;;;;;14.92;100.00;93831.66;5090349;28;20204;-57
2023/03/10 08:42:38;;;;;;;4.20;2.47;;;;;;;14.94;100.00;93860.44;5090499;28;20195;-55
2023/03/10 08:45:04;;;;;;;3.83;2.05;;;;;;;15.27;100.00;93860.84;5090616;28;20224;-55
2023/03/10 08:47:30;;;;;;;5.88;2.33;;;;;;;15.35;100.00;93890.72;5090548;28;20180;-55
2023/03/10 08:49:55;;;;;;;6.15;3.92;;;;;;;15.51;100.00;93893.13;5090709;28;20269;-55
2023/03/10 08:52:21;;;;;;;6.93;2.50;;;;;;;15.73;100.00;93898.13;5090363;28;20562;-55
2023/03/10 08:54:46;;;;;;;7.53;3.60;;;;;;;16.09;100.00;93923.78;5090543;28;20230;-55
2023/03/10 08:57:12;;;;;;;5.43;2.67;;;;;;;16.40;100.00;93890.94;5090183;28;20188;-54
2023/03/10 08:59:37;;;;;;;4.53;2.40;;;;;;;16.59;99.03;93957.06;5090550;28;20319;-56
2023/03/10 09:02:03;;;;;;;5.15;2.63;;;;;;;16.98;97.68;93973.81;5072235;28;20188;-55
2023/03/10 09:04:29;;;;;;;3.47;2.53;;;;;;;17.00;95.37;94011.16;5089824;28;20238;-56
2023/03/10 09:06:55;;;;;;;3.42;2.92;;;;;;;17.19;84.11;93984.06;5090279;28;20607;-55
2023/03/10 09:09:20;;;;;;;6.90;3.30;;;;;;;17.33;78.85;94017.34;5089938;28;20268;-55
2023/03/10 09:11:46;;;;;;;5.93;3.13;;;;;;;17.32;78.16;94009.84;5090003;28;20221;-55
2023/03/10 09:14:15;;;;;;;8.30;2.83;;;;;;;17.48;74.48;93979.53;5090206;28;20236;-54
2023/03/10 09:16:40;;;;;;;10.45;5.03;;;;;;;17.31;72.85;94011.59;5089569;28;20192;-55
2023/03/10 09:19:19;;;;;;;14.35;5.25;;;;;;;17.12;73.25;93988.34;5091521;28;20219;-56
2023/03/10 09:21:44;;;;;;;10.70;6.60;;;;;;;17.13;75.11;93928.31;5092787;28;20199;-56
2023/03/10 09:24:10;;;;;;;12.35;5.45;;;;;;;17.31;73.87;93941.47;5093375;28;20208;-56
2023/03/10 09:26:36;;;;;;;10.52;4.25;;;;;;;17.54;71.83;93988.28;5075234;28;20188;-55
2023/03/10 09:29:02;;;;;;;11.38;5.43;;;;;;;17.45;70.65;93990.16;5093441;28;20579;-55
2023/03/10 09:31:34;;;;;;;9.10;5.07;;;;;;;17.52;69.33;94015.94;5093413;28;20195;-55
2023/03/10 09:34:00;;;;;;;11.98;4.85;;;;;;;17.07;70.66;93970.13;5093187;28;20317;-56
2023/03/10 09:36:25;;;;;;;11.85;5.63;;;;;;;16.97;71.42;93947.31;5093293;28;20194;-56
2023/03/10 09:38:51;;;;;;;10.93;5.20;;;;;;;16.99;72.09;93924.03;5093244;28;20230;-56
2023/03/10 09:41:43;;;;;;;8.63;4.28;;;;;;;16.81;73.39;93891.09;5074883;28;20661;-60
2023/03/10 09:44:24;;;;;;;7.63;4.38;;;;;;;16.88;72.93;93904.00;5093255;28;20250;-60
2023/03/10 09:47:08;;;;;;;11.07;4.13;;;;;;;16.71;73.72;93873.47;5093535;28;20202;-60
2023/03/10 09:49:38;;;;;;;10.38;4.95;;;;;;;16.80;73.17;93866.44;5093280;28;20212;-61
2023/03/10 09:52:22;;;;;;;11.10;5.07;;;;;;;16.82;72.96;93879.88;5093105;28;20292;-61
2023/03/10 09:54:52;;;;;;;10.13;4.53;;;;;;;16.81;72.93;93878.28;5093565;28;20207;-60
2023/03/10 09:57:21;;;;;;;14.60;5.75;;;;;;;16.51;73.42;93866.59;5092505;28;20262;-62
2023/03/10 09:59:49;;;;;;;9.40;4.93;;;;;;;16.57;73.28;93858.16;5093389;28;20215;-59
2023/03/10 10:02:33;;;;;;;9.57;4.82;;;;;;;16.33;74.54;93822.59;5093028;28;20192;-55
2023/03/10 10:05:02;;;;;;;8.32;4.80;;;;;;;16.06;75.28;93800.28;5093065;28;20224;-56
2023/03/10 10:07:41;;;;;;;10.90;5.68;;;;;;;16.13;75.52;93794.22;5093074;28;20184;-55
2023/03/10 10:10:30;;;;;;;8.13;4.07;;;;;;;15.87;78.09;93717.09;5092147;28;20222;-55
2023/03/10 10:13:06;;;;;;;7.75;4.72;;;;;;;15.68;81.57;93618.56;5074557;28;20253;-55
2023/03/10 10:15:35;;;;;;;11.30;4.97;;;;;;;15.95;79.91;93673.38;5092785;28;20212;-55
2023/03/10 10:18:23;;;;;;;6.80;4.43;;;;;;;16.04;79.37;93687.63;5092636;28;20192;-56
2023/03/10 10:20:57;;;;;;;7.70;4.13;;;;;;;16.00;80.63;93657.44;5116908;22;20368;-56
2023/03/10 10:23:39;;;;;;;9.50;4.32;;;;;;;15.94;81.27;93639.25;5112663;28;20187;-55
2023/03/10 10:26:16;;;;;;;8.48;4.63;;;;;;;15.88;79.95;93669.97;5092471;28;20256;-56
2023/03/10 10:28:47;;;;;;;11.23;4.43;;;;;;;15.91;79.24;93687.53;5092130;28;20192;-56
2023/03/10 10:31:19;;;;;;;6.95;3.50;;;;;;;16.54;92.41;93414.66;5092147;28;20244;-60
2023/03/10 10:34:03;;;;;;;6.63;3.67;;;;;;;17.41;85.86;93554.69;5091930;28;20185;-60
2023/03/10 10:36:40;;;;;;;11.70;4.70;;;;;;;17.17;76.50;93760.75;5092616;28;20271;-60
2023/03/10 10:39:35;;;;;;;10.00;4.63;;;;;;;16.80;77.87;93725.25;5091701;28;20208;-60
2023/03/10 10:42:34;;;;;;;10.90;4.40;;;;;;;16.78;77.82;93716.94;5091947;28;20192;-61
2023/03/10 10:45:13;;;;;;;12.48;3.72;;;;;;;16.41;79.79;93671.91;5036964;28;20230;-60
2023/03/10 10:47:49;;;;;;;7.38;4.97;;;;;;;16.17;79.71;93679.25;5092441;28;20226;-60
2023/03/10 10:50:32;;;;;;;9.82;4.80;;;;;;;15.93;79.70;93671.00;5092071;28;20289;-59
2023/03/10 10:53:12;;;;;;;5.88;4.28;;;;;;;15.80;80.44;93655.53;5091841;28;20172;-60
2023/03/10 10:55:39;;;;;;;8.30;4.45;;;;;;;15.96;80.63;93651.88;5091892;28;20223;-61
2023/03/10 10:58:32;;;;;;;9.40;4.78;;;;;;;15.92;79.86;93651.47;5092049;28;20650;-61
2023/03/10 11:01:01;;;;;;;7.80;4.75;;;;;;;15.84;79.92;93640.56;5092167;28;20192;-59
2023/03/10 11:03:35;;;;;;;8.48;5.03;;;;;;;15.64;84.98;93522.56;5091751;28;20220;-59
2023/03/10 11:06:16;;;;;;;8.07;4.95;;;;;;;15.61;82.95;93581.88;5091680;28;20656;-61
2023/03/10 11:08:49;;;;;;;12.05;5.60;;;;;;;15.55;83.82;93561.31;5091789;28;20646;-61
2023/03/10 11:11:33;;;;;;;10.85;5.47;;;;;;;15.46;86.12;93514.56;5091974;28;20216;-57
2023/03/10 11:14:11;;;;;;;10.82;6.00;;;;;;;15.29;87.51;93479.94;5092012;28;20243;-55
2023/03/10 11:17:18;;;;;;;10.88;5.30;;;;;;;15.34;89.55;93433.28;5091905;28;20267;-56
2023/03/10 11:20:22;;;;;;;11.65;5.47;;;;;;;15.33;90.45;93401.75;5002308;28;20227;-58
2023/03/10 11:23:09;;;;;;;7.78;2.97;;;;;;;15.30;84.57;93517.38;5091384;28;20221;-59
2023/03/10 11:25:51;;;;;;;7.07;3.03;;;;;;;15.13;87.34;93437.50;5091464;28;20215;-56
2023/03/10 11:28:28;;;;;;;5.40;3.53;;;;;;;15.18;90.49;93374.69;5091661;28;20211;-57
2023/03/10 11:31:27;;;;;;;4.20;3.08;;;;;;;15.28;91.48;93344.41;5091714;28;20263;-58
2023/03/10 11:34:33;;;;;;;10.20;3.53;;;;;;;15.34;89.64;93395.66;5090496;28;20292;-60
2023/03/10 11:37:01;;;;;;;5.80;2.97;;;;;;;15.35;89.68;93381.09;5091616;28;20199;-59